Estación Meteorológica Peña el Pijo (Robertgarden) [ 02/03/23 03:46:51 CET ]

Fecha Hora Presion(HPa) Temp (°C) Humedad % Rocio (°C) Viento ( m/s) Direccion Lluvia 1Hora(mm) Lluvia 24H(mm) LLuvia Total(mm)
2010-Jul-13 01:01:12 1013.200 18.9 51 8.6         130.53
2010-Jul-13 02:01:17 1012.900 18.8 47 7.2         130.53
2010-Jul-13 03:03:21 1012.400 17.3 48 6.1         130.53
2010-Jul-13 04:01:12 1012.000 16.9 49 6.1         130.53
2010-Jul-13 05:01:12 1011.800 15.9 52 6.0         130.53
2010-Jul-13 06:01:12 1011.500 14.6 64 7.8         130.53
2010-Jul-13 07:01:18 1011.600 14.7 64 7.9         130.53
2010-Jul-13 08:01:14 1011.400 16.2 66 9.9         130.53
2010-Jul-13 09:01:17 1011.900 22.1 55 12.6         130.53
2010-Jul-13 10:01:13 1011.400 27.8 40 13.0         130.53
2010-Jul-13 11:01:13 1011.200 32.9 30 13.1         130.53
2010-Jul-13 12:01:13 1011.300 34.1 24 10.4         130.53
2010-Jul-13 13:01:16 1010.900 34.9 21 9.2         130.53
2010-Jul-13 14:01:13 1010.500 36.3 19 8.8         130.53
2010-Jul-13 15:01:13 1010.100 35.5 17 6.2         130.53
2010-Jul-13 16:01:14 1009.600 37.4 17 7.7         130.53
2010-Jul-13 17:01:11 1009.200 38.0 15 6.2         130.53
2010-Jul-13 18:01:16 1008.700 37.6 15 5.9         130.53
2010-Jul-13 19:01:16 1008.600 35.3 19 8.0         130.53
2010-Jul-13 20:01:16 1008.800 33.0 20 7.1         130.53
2010-Jul-13 21:01:13 1009.400 28.6 25 6.4         130.53
2010-Jul-13 22:01:12 1009.700 23.9 38 8.7         130.53
2010-Jul-13 23:01:19 1010.400 20.7 46 8.6         130.53

Temperatura Máxima:38°    Temperatura Mínima:14°
Presión Máxima:1013.200 Hpa    Presión Mínima:1008.600 Hpa


Volver